Archival Weather

Chicago O'Hare International

Chicago, Illinois (KORD)

Report from: Wednesday, February 1, 2023 7:51 AM CST
Current time: Tuesday, July 16, 2024 11:17 AM CDT

Current weather – Weather history – Daily summaries
Weather forecast

Temperature-12.2°C (10.0°F)
Wind chill-19.4°C (-2.9°F)
Dew point-18.3°C (-0.9°F)
Winds 8 kts (4.1 m/s, 9.2 mph) Southwest (230°)
Visibility10 mi. (16.1 km)
Clouds Sky clear
Altimeter30.34 in.Hg (1027 mB)
Relative humidity60 %
Density altitude-3,928 ft. (-1,197 m)
Sea-level pressure102.9 kPa (1029 mB, 30.38 in.Hg)
Remarks Automated weather observing station with precipitation discriminator
Flight conditions Visual Meteorological Conditions
Raw dataKORD 011351Z 23008KT 10SM CLR M12/M18 A3034 RMK AO2 SLP289 T11221183
An error has occurred. This application may no longer respond until reloaded. Reload 🗙